sensor_id;sensor_type;location;lat;lon;timestamp;pressure;altitude;pressure_sealevel;temperature
40624;BMP280;26325;48.594;11.650;2023-01-10T00:02:21;96152.66;;;5.14
40624;BMP280;26325;48.594;11.650;2023-01-10T00:04:47;96156.53;;;5.16
40624;BMP280;26325;48.594;11.650;2023-01-10T00:07:15;96162.63;;;5.04
40624;BMP280;26325;48.594;11.650;2023-01-10T00:09:44;96168.59;;;4.98
40624;BMP280;26325;48.594;11.650;2023-01-10T00:12:12;96177.81;;;4.99
40624;BMP280;26325;48.594;11.650;2023-01-10T00:14:56;96181.66;;;5.08
40624;BMP280;26325;48.594;11.650;2023-01-10T00:17:22;96192.66;;;5.09
40624;BMP280;26325;48.594;11.650;2023-01-10T00:19:47;96193.03;;;5.12
40624;BMP280;26325;48.594;11.650;2023-01-10T00:22:13;96198.28;;;5.17
40624;BMP280;26325;48.594;11.650;2023-01-10T00:24:38;96202.97;;;5.20
40624;BMP280;26325;48.594;11.650;2023-01-10T00:27:05;96210.78;;;5.25
40624;BMP280;26325;48.594;11.650;2023-01-10T00:29:31;96204.38;;;5.33
40624;BMP280;26325;48.594;11.650;2023-01-10T00:31:56;96211.72;;;5.30
40624;BMP280;26325;48.594;11.650;2023-01-10T00:34:22;96218.91;;;5.22
40624;BMP280;26325;48.594;11.650;2023-01-10T00:36:48;96208.53;;;5.17
40624;BMP280;26325;48.594;11.650;2023-01-10T00:39:16;96212.34;;;5.26
40624;BMP280;26325;48.594;11.650;2023-01-10T00:41:44;96216.63;;;5.32
40624;BMP280;26325;48.594;11.650;2023-01-10T00:44:28;96218.75;;;5.17
40624;BMP280;26325;48.594;11.650;2023-01-10T00:46:53;96219.63;;;5.11
40624;BMP280;26325;48.594;11.650;2023-01-10T00:49:23;96220.28;;;5.07
40624;BMP280;26325;48.594;11.650;2023-01-10T00:51:48;96226.72;;;5.09
40624;BMP280;26325;48.594;11.650;2023-01-10T00:54:14;96232.72;;;5.03
40624;BMP280;26325;48.594;11.650;2023-01-10T00:56:39;96239.75;;;5.08
40624;BMP280;26325;48.594;11.650;2023-01-10T00:59:05;96244.53;;;5.04
40624;BMP280;26325;48.594;11.650;2023-01-10T01:01:32;96249.06;;;5.02
40624;BMP280;26325;48.594;11.650;2023-01-10T01:04:00;96254.75;;;5.04
40624;BMP280;26325;48.594;11.650;2023-01-10T01:06:26;96251.63;;;5.02
40624;BMP280;26325;48.594;11.650;2023-01-10T01:08:53;96267.91;;;5.08
40624;BMP280;26325;48.594;11.650;2023-01-10T01:11:19;96266.69;;;5.10
40624;BMP280;26325;48.594;11.650;2023-01-10T01:13:44;96282.63;;;5.12
40624;BMP280;26325;48.594;11.650;2023-01-10T01:16:10;96281.22;;;5.16
40624;BMP280;26325;48.594;11.650;2023-01-10T01:18:35;96285.28;;;5.23
40624;BMP280;26325;48.594;11.650;2023-01-10T01:21:01;96276.06;;;5.33
40624;BMP280;26325;48.594;11.650;2023-01-10T01:23:28;96290.72;;;5.27
40624;BMP280;26325;48.594;11.650;2023-01-10T01:25:54;96302.25;;;5.18
40624;BMP280;26325;48.594;11.650;2023-01-10T01:28:22;96312.50;;;5.18
40624;BMP280;26325;48.594;11.650;2023-01-10T01:30:50;96315.22;;;5.23
40624;BMP280;26325;48.594;11.650;2023-01-10T01:33:16;96324.75;;;5.16
40624;BMP280;26325;48.594;11.650;2023-01-10T01:35:45;96328.56;;;5.25
40624;BMP280;26325;48.594;11.650;2023-01-10T01:38:11;96328.84;;;5.17
40624;BMP280;26325;48.594;11.650;2023-01-10T01:40:37;96335.13;;;5.21
40624;BMP280;26325;48.594;11.650;2023-01-10T01:43:04;96334.47;;;5.25
40624;BMP280;26325;48.594;11.650;2023-01-10T01:45:38;96334.34;;;5.20
40624;BMP280;26325;48.594;11.650;2023-01-10T01:53:46;96351.06;;;5.23
40624;BMP280;26325;48.594;11.650;2023-01-10T01:56:33;96345.97;;;5.16
40624;BMP280;26325;48.594;11.650;2023-01-10T02:01:40;96358.88;;;5.28
40624;BMP280;26325;48.594;11.650;2023-01-10T02:04:16;96354.94;;;5.25
40624;BMP280;26325;48.594;11.650;2023-01-10T02:06:44;96354.16;;;5.25
40624;BMP280;26325;48.594;11.650;2023-01-10T02:09:23;96356.97;;;5.23
40624;BMP280;26325;48.594;11.650;2023-01-10T02:11:49;96356.09;;;5.29
40624;BMP280;26325;48.594;11.650;2023-01-10T02:14:15;96367.53;;;5.27
40624;BMP280;26325;48.594;11.650;2023-01-10T02:16:44;96371.22;;;5.13
40624;BMP280;26325;48.594;11.650;2023-01-10T02:19:19;96370.19;;;5.20
40624;BMP280;26325;48.594;11.650;2023-01-10T02:24:27;96358.47;;;5.31
40624;BMP280;26325;48.594;11.650;2023-01-10T02:32:59;96374.03;;;5.29
40624;BMP280;26325;48.594;11.650;2023-01-10T02:43:31;96391.53;;;5.32
40624;BMP280;26325;48.594;11.650;2023-01-10T02:46:02;96391.09;;;5.35
40624;BMP280;26325;48.594;11.650;2023-01-10T02:48:28;96399.50;;;5.42
40624;BMP280;26325;48.594;11.650;2023-01-10T02:51:08;96389.03;;;5.43
40624;BMP280;26325;48.594;11.650;2023-01-10T02:59:41;96413.25;;;5.47
40624;BMP280;26325;48.594;11.650;2023-01-10T03:08:23;96429.19;;;5.49
40624;BMP280;26325;48.594;11.650;2023-01-10T03:15:33;96423.41;;;5.53
40624;BMP280;26325;48.594;11.650;2023-01-10T03:18:01;96436.13;;;5.42
40624;BMP280;26325;48.594;11.650;2023-01-10T03:20:28;96437.63;;;5.32
40624;BMP280;26325;48.594;11.650;2023-01-10T03:22:56;96446.31;;;5.31
40624;BMP280;26325;48.594;11.650;2023-01-10T03:25:25;96445.06;;;5.33
40624;BMP280;26325;48.594;11.650;2023-01-10T03:28:04;96453.34;;;5.35
40624;BMP280;26325;48.594;11.650;2023-01-10T03:30:40;96460.75;;;5.43
40624;BMP280;26325;48.594;11.650;2023-01-10T03:33:07;96469.34;;;5.31
40624;BMP280;26325;48.594;11.650;2023-01-10T03:38:09;96484.19;;;5.23
40624;BMP280;26325;48.594;11.650;2023-01-10T03:43:18;96494.84;;;5.20
40624;BMP280;26325;48.594;11.650;2023-01-10T03:46:07;96495.69;;;5.14
40624;BMP280;26325;48.594;11.650;2023-01-10T03:48:37;96498.84;;;5.33
40624;BMP280;26325;48.594;11.650;2023-01-10T03:51:05;96500.75;;;5.20
40624;BMP280;26325;48.594;11.650;2023-01-10T03:53:32;96511.00;;;5.20
40624;BMP280;26325;48.594;11.650;2023-01-10T03:56:00;96526.75;;;5.17
40624;BMP280;26325;48.594;11.650;2023-01-10T03:58:27;96521.63;;;5.24
40624;BMP280;26325;48.594;11.650;2023-01-10T04:00:54;96520.03;;;5.23
40624;BMP280;26325;48.594;11.650;2023-01-10T04:03:21;96529.03;;;5.32
40624;BMP280;26325;48.594;11.650;2023-01-10T04:05:46;96543.03;;;5.29
40624;BMP280;26325;48.594;11.650;2023-01-10T04:08:12;96540.94;;;5.20
40624;BMP280;26325;48.594;11.650;2023-01-10T04:10:38;96546.06;;;5.20
40624;BMP280;26325;48.594;11.650;2023-01-10T04:13:06;96541.31;;;5.23
40624;BMP280;26325;48.594;11.650;2023-01-10T04:15:34;96546.38;;;5.30
40624;BMP280;26325;48.594;11.650;2023-01-10T04:18:00;96551.56;;;5.23
40624;BMP280;26325;48.594;11.650;2023-01-10T04:20:25;96552.63;;;5.10
40624;BMP280;26325;48.594;11.650;2023-01-10T04:22:53;96557.13;;;5.14
40624;BMP280;26325;48.594;11.650;2023-01-10T04:25:22;96561.81;;;5.17
40624;BMP280;26325;48.594;11.650;2023-01-10T04:27:48;96566.19;;;5.10
40624;BMP280;26325;48.594;11.650;2023-01-10T04:30:15;96566.00;;;5.12
40624;BMP280;26325;48.594;11.650;2023-01-10T04:32:42;96563.66;;;5.10
40624;BMP280;26325;48.594;11.650;2023-01-10T04:35:08;96560.56;;;5.26
40624;BMP280;26325;48.594;11.650;2023-01-10T04:37:34;96577.38;;;5.22
40624;BMP280;26325;48.594;11.650;2023-01-10T04:39:59;96583.88;;;5.18
40624;BMP280;26325;48.594;11.650;2023-01-10T04:42:24;96581.91;;;5.20
40624;BMP280;26325;48.594;11.650;2023-01-10T04:44:50;96594.13;;;5.18
40624;BMP280;26325;48.594;11.650;2023-01-10T04:47:15;96593.38;;;5.11
40624;BMP280;26325;48.594;11.650;2023-01-10T04:49:41;96590.03;;;5.11
40624;BMP280;26325;48.594;11.650;2023-01-10T04:52:06;96598.88;;;5.14
40624;BMP280;26325;48.594;11.650;2023-01-10T04:54:32;96608.00;;;5.34
40624;BMP280;26325;48.594;11.650;2023-01-10T04:57:00;96604.09;;;5.26
40624;BMP280;26325;48.594;11.650;2023-01-10T04:59:28;96612.22;;;5.23
40624;BMP280;26325;48.594;11.650;2023-01-10T05:01:53;96616.16;;;5.19
40624;BMP280;26325;48.594;11.650;2023-01-10T05:04:20;96618.91;;;5.24
40624;BMP280;26325;48.594;11.650;2023-01-10T05:06:46;96624.03;;;5.24
40624;BMP280;26325;48.594;11.650;2023-01-10T05:09:11;96637.81;;;5.23
40624;BMP280;26325;48.594;11.650;2023-01-10T05:11:37;96645.16;;;5.13
40624;BMP280;26325;48.594;11.650;2023-01-10T05:14:02;96648.31;;;5.15
40624;BMP280;26325;48.594;11.650;2023-01-10T05:16:28;96649.69;;;5.11
40624;BMP280;26325;48.594;11.650;2023-01-10T05:18:56;96654.41;;;5.14
40624;BMP280;26325;48.594;11.650;2023-01-10T05:21:27;96661.44;;;5.25
40624;BMP280;26325;48.594;11.650;2023-01-10T05:23:53;96666.63;;;5.12
40624;BMP280;26325;48.594;11.650;2023-01-10T05:26:21;96672.50;;;5.19
40624;BMP280;26325;48.594;11.650;2023-01-10T05:28:47;96675.25;;;5.17
40624;BMP280;26325;48.594;11.650;2023-01-10T05:31:15;96676.84;;;5.18
40624;BMP280;26325;48.594;11.650;2023-01-10T05:33:48;96684.72;;;5.23
40624;BMP280;26325;48.594;11.650;2023-01-10T05:36:15;96673.25;;;5.26
40624;BMP280;26325;48.594;11.650;2023-01-10T05:38:40;96680.38;;;5.24
40624;BMP280;26325;48.594;11.650;2023-01-10T05:41:06;96692.53;;;5.28
40624;BMP280;26325;48.594;11.650;2023-01-10T05:43:31;96691.06;;;5.14
40624;BMP280;26325;48.594;11.650;2023-01-10T05:45:57;96696.97;;;5.15
40624;BMP280;26325;48.594;11.650;2023-01-10T05:48:22;96701.66;;;5.18
40624;BMP280;26325;48.594;11.650;2023-01-10T05:50:51;96708.16;;;5.20
40624;BMP280;26325;48.594;11.650;2023-01-10T05:53:18;96721.75;;;5.21
40624;BMP280;26325;48.594;11.650;2023-01-10T05:55:43;96720.16;;;5.20
40624;BMP280;26325;48.594;11.650;2023-01-10T05:58:09;96726.25;;;5.25
40624;BMP280;26325;48.594;11.650;2023-01-10T06:00:37;96741.91;;;5.05
40624;BMP280;26325;48.594;11.650;2023-01-10T06:03:04;96738.75;;;5.03
40624;BMP280;26325;48.594;11.650;2023-01-10T06:05:29;96740.69;;;5.13
40624;BMP280;26325;48.594;11.650;2023-01-10T06:07:55;96757.66;;;5.02
40624;BMP280;26325;48.594;11.650;2023-01-10T06:10:21;96756.47;;;5.04
40624;BMP280;26325;48.594;11.650;2023-01-10T06:12:46;96768.09;;;5.00
40624;BMP280;26325;48.594;11.650;2023-01-10T06:15:16;96773.78;;;5.02
40624;BMP280;26325;48.594;11.650;2023-01-10T06:17:43;96775.75;;;5.13
40624;BMP280;26325;48.594;11.650;2023-01-10T06:20:11;96779.25;;;5.18
40624;BMP280;26325;48.594;11.650;2023-01-10T06:22:39;96779.50;;;5.04
40624;BMP280;26325;48.594;11.650;2023-01-10T06:25:05;96784.84;;;4.96
40624;BMP280;26325;48.594;11.650;2023-01-10T06:27:31;96794.28;;;5.02
40624;BMP280;26325;48.594;11.650;2023-01-10T06:29:58;96798.59;;;5.08
40624;BMP280;26325;48.594;11.650;2023-01-10T06:32:26;96803.13;;;5.13
40624;BMP280;26325;48.594;11.650;2023-01-10T06:34:51;96816.53;;;5.02
40624;BMP280;26325;48.594;11.650;2023-01-10T06:37:17;96812.97;;;5.03
40624;BMP280;26325;48.594;11.650;2023-01-10T06:39:43;96825.78;;;5.03
40624;BMP280;26325;48.594;11.650;2023-01-10T06:42:10;96833.28;;;4.92
40624;BMP280;26325;48.594;11.650;2023-01-10T06:44:36;96836.97;;;5.08
40624;BMP280;26325;48.594;11.650;2023-01-10T06:47:01;96847.03;;;5.16
40624;BMP280;26325;48.594;11.650;2023-01-10T06:49:35;96853.75;;;5.04
40624;BMP280;26325;48.594;11.650;2023-01-10T06:52:01;96868.72;;;5.07
40624;BMP280;26325;48.594;11.650;2023-01-10T06:54:26;96865.16;;;5.02
40624;BMP280;26325;48.594;11.650;2023-01-10T06:56:51;96865.94;;;5.02
40624;BMP280;26325;48.594;11.650;2023-01-10T06:59:17;96871.88;;;5.03
40624;BMP280;26325;48.594;11.650;2023-01-10T07:01:42;96885.44;;;5.03
40624;BMP280;26325;48.594;11.650;2023-01-10T07:04:08;96884.84;;;5.01
40624;BMP280;26325;48.594;11.650;2023-01-10T07:06:37;96897.88;;;5.06
40624;BMP280;26325;48.594;11.650;2023-01-10T07:09:03;96901.19;;;5.00
40624;BMP280;26325;48.594;11.650;2023-01-10T07:11:29;96907.69;;;5.09
40624;BMP280;26325;48.594;11.650;2023-01-10T07:13:56;96914.59;;;5.02
40624;BMP280;26325;48.594;11.650;2023-01-10T07:16:21;96914.97;;;5.12
40624;BMP280;26325;48.594;11.650;2023-01-10T07:18:47;96934.47;;;5.00
40624;BMP280;26325;48.594;11.650;2023-01-10T07:21:12;96946.13;;;4.96
40624;BMP280;26325;48.594;11.650;2023-01-10T07:23:38;96945.91;;;4.98
40624;BMP280;26325;48.594;11.650;2023-01-10T07:26:05;96947.88;;;5.02
40624;BMP280;26325;48.594;11.650;2023-01-10T07:28:30;96954.38;;;5.11
40624;BMP280;26325;48.594;11.650;2023-01-10T07:30:59;96960.47;;;5.04
40624;BMP280;26325;48.594;11.650;2023-01-10T07:33:24;96967.97;;;5.12
40624;BMP280;26325;48.594;11.650;2023-01-10T07:35:50;96966.38;;;5.04
40624;BMP280;26325;48.594;11.650;2023-01-10T07:38:15;96976.25;;;5.07
40624;BMP280;26325;48.594;11.650;2023-01-10T07:40:40;96981.94;;;5.09
40624;BMP280;26325;48.594;11.650;2023-01-10T07:43:06;96983.72;;;5.02
40624;BMP280;26325;48.594;11.650;2023-01-10T07:45:31;96985.28;;;5.03
40624;BMP280;26325;48.594;11.650;2023-01-10T07:48:01;96994.34;;;4.99
40624;BMP280;26325;48.594;11.650;2023-01-10T07:50:28;96995.72;;;5.02
40624;BMP280;26325;48.594;11.650;2023-01-10T07:52:54;96994.16;;;5.01
40624;BMP280;26325;48.594;11.650;2023-01-10T07:55:20;97013.63;;;5.08
40624;BMP280;26325;48.594;11.650;2023-01-10T07:57:45;97018.75;;;5.08
40624;BMP280;26325;48.594;11.650;2023-01-10T14:03:54;97260.13;;;6.64
40624;BMP280;26325;48.594;11.650;2023-01-10T14:09:02;97265.63;;;6.73
40624;BMP280;26325;48.594;11.650;2023-01-10T14:12:00;97265.06;;;6.78
40624;BMP280;26325;48.594;11.650;2023-01-10T14:14:33;97265.41;;;6.94
40624;BMP280;26325;48.594;11.650;2023-01-10T14:17:14;97263.00;;;7.05
40624;BMP280;26325;48.594;11.650;2023-01-10T14:19:46;97240.47;;;7.07
40624;BMP280;26325;48.594;11.650;2023-01-10T14:22:32;97251.69;;;7.19
40624;BMP280;26325;48.594;11.650;2023-01-10T14:25:00;97254.50;;;7.11
40624;BMP280;26325;48.594;11.650;2023-01-10T14:27:42;97245.03;;;7.05
40624;BMP280;26325;48.594;11.650;2023-01-10T14:30:35;97237.09;;;7.13
40624;BMP280;26325;48.594;11.650;2023-01-10T14:33:35;97248.97;;;7.01
40624;BMP280;26325;48.594;11.650;2023-01-10T14:36:26;97256.84;;;7.06
40624;BMP280;26325;48.594;11.650;2023-01-10T16:16:34;97235.56;;;5.53
40624;BMP280;26325;48.594;11.650;2023-01-10T16:19:02;97236.63;;;5.65
40624;BMP280;26325;48.594;11.650;2023-01-10T16:21:33;97242.28;;;5.54
40624;BMP280;26325;48.594;11.650;2023-01-10T16:23:59;97235.75;;;5.39
40624;BMP280;26325;48.594;11.650;2023-01-10T16:26:25;97245.56;;;5.30
40624;BMP280;26325;48.594;11.650;2023-01-10T16:28:51;97235.88;;;5.25
40624;BMP280;26325;48.594;11.650;2023-01-10T16:31:16;97233.31;;;5.19
40624;BMP280;26325;48.594;11.650;2023-01-10T16:33:42;97239.41;;;5.18
40624;BMP280;26325;48.594;11.650;2023-01-10T16:36:15;97239.19;;;5.13
40624;BMP280;26325;48.594;11.650;2023-01-10T16:38:42;97243.72;;;5.11
40624;BMP280;26325;48.594;11.650;2023-01-10T16:54:41;97221.72;;;5.35
40624;BMP280;26325;48.594;11.650;2023-01-10T16:57:09;97223.84;;;5.13
40624;BMP280;26325;48.594;11.650;2023-01-10T16:59:39;97215.78;;;5.16
40624;BMP280;26325;48.594;11.650;2023-01-10T17:02:12;97217.47;;;4.96
40624;BMP280;26325;48.594;11.650;2023-01-10T17:04:40;97219.59;;;4.87
40624;BMP280;26325;48.594;11.650;2023-01-10T17:07:05;97206.59;;;4.88
40624;BMP280;26325;48.594;11.650;2023-01-10T17:09:31;97224.22;;;4.71
40624;BMP280;26325;48.594;11.650;2023-01-10T17:12:01;97215.63;;;4.45
40624;BMP280;26325;48.594;11.650;2023-01-10T17:14:35;97217.72;;;4.35
40624;BMP280;26325;48.594;11.650;2023-01-10T17:17:02;97209.78;;;4.30
40624;BMP280;26325;48.594;11.650;2023-01-10T17:19:28;97218.13;;;4.12
40624;BMP280;26325;48.594;11.650;2023-01-10T17:21:54;97229.47;;;4.03
40624;BMP280;26325;48.594;11.650;2023-01-10T17:24:20;97226.31;;;4.01
40624;BMP280;26325;48.594;11.650;2023-01-10T17:26:47;97225.47;;;3.94
40624;BMP280;26325;48.594;11.650;2023-01-10T17:29:13;97218.59;;;3.95
40624;BMP280;26325;48.594;11.650;2023-01-10T17:31:43;97226.78;;;3.90
40624;BMP280;26325;48.594;11.650;2023-01-10T17:34:08;97219.38;;;3.54
40624;BMP280;26325;48.594;11.650;2023-01-10T17:36:36;97225.94;;;3.63
40624;BMP280;26325;48.594;11.650;2023-01-10T17:41:31;97227.53;;;3.64
40624;BMP280;26325;48.594;11.650;2023-01-10T17:43:56;97223.34;;;3.57
40624;BMP280;26325;48.594;11.650;2023-01-10T17:46:24;97220.13;;;3.48
40624;BMP280;26325;48.594;11.650;2023-01-10T17:48:49;97226.06;;;3.55
40624;BMP280;26325;48.594;11.650;2023-01-10T17:51:15;97218.66;;;3.60
40624;BMP280;26325;48.594;11.650;2023-01-10T17:53:41;97231.66;;;3.44
40624;BMP280;26325;48.594;11.650;2023-01-10T17:56:07;97221.81;;;3.62
40624;BMP280;26325;48.594;11.650;2023-01-10T17:58:33;97219.16;;;3.49
40624;BMP280;26325;48.594;11.650;2023-01-10T18:00:58;97231.41;;;3.40
40624;BMP280;26325;48.594;11.650;2023-01-10T18:03:24;97227.03;;;3.34
40624;BMP280;26325;48.594;11.650;2023-01-10T18:05:55;97232.84;;;3.28
40624;BMP280;26325;48.594;11.650;2023-01-10T18:08:22;97232.84;;;3.28
40624;BMP280;26325;48.594;11.650;2023-01-10T18:10:48;97227.56;;;3.29
40624;BMP280;26325;48.594;11.650;2023-01-10T18:13:15;97224.72;;;3.39
40624;BMP280;26325;48.594;11.650;2023-01-10T18:15:45;97227.03;;;3.54
40624;BMP280;26325;48.594;11.650;2023-01-10T18:18:11;97227.91;;;3.41
40624;BMP280;26325;48.594;11.650;2023-01-10T18:20:44;97223.31;;;3.36
40624;BMP280;26325;48.594;11.650;2023-01-10T18:23:15;97222.28;;;3.31
40624;BMP280;26325;48.594;11.650;2023-01-10T18:26:05;97216.22;;;3.32
40624;BMP280;26325;48.594;11.650;2023-01-10T18:28:43;97219.13;;;3.29
40624;BMP280;26325;48.594;11.650;2023-01-10T18:31:14;97223.25;;;3.30
40624;BMP280;26325;48.594;11.650;2023-01-10T18:33:40;97221.94;;;3.34
40624;BMP280;26325;48.594;11.650;2023-01-10T18:36:12;97226.38;;;3.25
40624;BMP280;26325;48.594;11.650;2023-01-10T18:38:39;97226.25;;;3.33
40624;BMP280;26325;48.594;11.650;2023-01-10T18:41:09;97218.53;;;3.47
40624;BMP280;26325;48.594;11.650;2023-01-10T18:43:35;97212.44;;;3.48
40624;BMP280;26325;48.594;11.650;2023-01-10T18:46:08;97216.25;;;3.52
40624;BMP280;26325;48.594;11.650;2023-01-10T18:48:34;97216.59;;;3.49
40624;BMP280;26325;48.594;11.650;2023-01-10T18:51:01;97216.78;;;3.48
40624;BMP280;26325;48.594;11.650;2023-01-10T18:53:27;97211.81;;;3.61
40624;BMP280;26325;48.594;11.650;2023-01-10T18:55:54;97207.22;;;3.56
40624;BMP280;26325;48.594;11.650;2023-01-10T18:58:29;97205.50;;;3.63
40624;BMP280;26325;48.594;11.650;2023-01-10T19:00:55;97207.66;;;3.60
40624;BMP280;26325;48.594;11.650;2023-01-10T19:03:21;97210.34;;;3.52
40624;BMP280;26325;48.594;11.650;2023-01-10T19:05:47;97213.34;;;3.61
40624;BMP280;26325;48.594;11.650;2023-01-10T19:08:13;97210.03;;;3.61
40624;BMP280;26325;48.594;11.650;2023-01-10T19:10:43;97206.38;;;3.49
40624;BMP280;26325;48.594;11.650;2023-01-10T19:13:09;97199.34;;;3.51
40624;BMP280;26325;48.594;11.650;2023-01-10T19:15:35;97198.66;;;3.43
40624;BMP280;26325;48.594;11.650;2023-01-10T19:18:03;97193.97;;;3.46
40624;BMP280;26325;48.594;11.650;2023-01-10T19:20:30;97192.94;;;3.41
40624;BMP280;26325;48.594;11.650;2023-01-10T19:22:58;97188.97;;;3.39
40624;BMP280;26325;48.594;11.650;2023-01-10T19:25:23;97199.47;;;3.29
40624;BMP280;26325;48.594;11.650;2023-01-10T19:27:49;97200.16;;;3.17
40624;BMP280;26325;48.594;11.650;2023-01-10T19:30:15;97195.41;;;3.14
40624;BMP280;26325;48.594;11.650;2023-01-10T19:32:41;97199.41;;;2.88
40624;BMP280;26325;48.594;11.650;2023-01-10T19:35:07;97192.09;;;3.00
40624;BMP280;26325;48.594;11.650;2023-01-10T19:37:33;97186.63;;;3.03
40624;BMP280;26325;48.594;11.650;2023-01-10T19:39:58;97180.31;;;2.99
40624;BMP280;26325;48.594;11.650;2023-01-10T19:42:24;97180.31;;;2.84
40624;BMP280;26325;48.594;11.650;2023-01-10T19:44:49;97181.84;;;2.79
40624;BMP280;26325;48.594;11.650;2023-01-10T19:47:15;97174.13;;;2.73
40624;BMP280;26325;48.594;11.650;2023-01-10T19:49:41;97172.94;;;2.75
40624;BMP280;26325;48.594;11.650;2023-01-10T19:52:07;97178.75;;;2.69
40624;BMP280;26325;48.594;11.650;2023-01-10T19:54:33;97173.84;;;2.68
40624;BMP280;26325;48.594;11.650;2023-01-10T19:56:59;97178.09;;;2.47
40624;BMP280;26325;48.594;11.650;2023-01-10T19:59:30;97179.06;;;2.46
40624;BMP280;26325;48.594;11.650;2023-01-10T20:01:57;97178.78;;;2.41
40624;BMP280;26325;48.594;11.650;2023-01-10T20:04:25;97171.69;;;2.37
40624;BMP280;26325;48.594;11.650;2023-01-10T20:06:53;97176.94;;;2.35
40624;BMP280;26325;48.594;11.650;2023-01-10T20:09:19;97161.13;;;2.26
40624;BMP280;26325;48.594;11.650;2023-01-10T20:11:47;97165.25;;;2.27
40624;BMP280;26325;48.594;11.650;2023-01-10T20:14:18;97159.28;;;2.20
40624;BMP280;26325;48.594;11.650;2023-01-10T20:16:44;97162.63;;;2.20
40624;BMP280;26325;48.594;11.650;2023-01-10T20:19:10;97156.47;;;2.15
40624;BMP280;26325;48.594;11.650;2023-01-10T20:21:38;97162.25;;;2.09
40624;BMP280;26325;48.594;11.650;2023-01-10T20:24:13;97165.88;;;2.14
40624;BMP280;26325;48.594;11.650;2023-01-10T20:26:39;97164.81;;;2.09
40624;BMP280;26325;48.594;11.650;2023-01-10T20:29:05;97161.38;;;2.02
40624;BMP280;26325;48.594;11.650;2023-01-10T20:31:31;97163.31;;;2.00
40624;BMP280;26325;48.594;11.650;2023-01-10T20:36:23;97156.63;;;1.85
40624;BMP280;26325;48.594;11.650;2023-01-10T20:38:50;97160.66;;;1.80
40624;BMP280;26325;48.594;11.650;2023-01-10T20:41:19;97160.53;;;1.73
40624;BMP280;26325;48.594;11.650;2023-01-10T20:43:44;97158.50;;;1.69
40624;BMP280;26325;48.594;11.650;2023-01-10T20:46:17;97165.69;;;1.66
40624;BMP280;26325;48.594;11.650;2023-01-10T20:48:44;97158.59;;;1.61
40624;BMP280;26325;48.594;11.650;2023-01-10T20:51:16;97155.25;;;1.61
40624;BMP280;26325;48.594;11.650;2023-01-10T20:53:43;97159.63;;;1.52
40624;BMP280;26325;48.594;11.650;2023-01-10T20:56:12;97141.50;;;1.48
40624;BMP280;26325;48.594;11.650;2023-01-10T20:58:39;97142.03;;;1.43
40624;BMP280;26325;48.594;11.650;2023-01-10T21:01:05;97139.50;;;1.43
40624;BMP280;26325;48.594;11.650;2023-01-10T21:03:31;97145.06;;;1.39
40624;BMP280;26325;48.594;11.650;2023-01-10T21:05:57;97135.84;;;1.38
40624;BMP280;26325;48.594;11.650;2023-01-10T21:08:24;97138.41;;;1.38
40624;BMP280;26325;48.594;11.650;2023-01-10T21:10:51;97133.69;;;1.49
40624;BMP280;26325;48.594;11.650;2023-01-10T21:13:17;97125.66;;;1.38
40624;BMP280;26325;48.594;11.650;2023-01-10T21:15:44;97135.91;;;1.52
40624;BMP280;26325;48.594;11.650;2023-01-10T21:18:12;97125.91;;;1.65
40624;BMP280;26325;48.594;11.650;2023-01-10T21:20:42;97125.25;;;1.71
40624;BMP280;26325;48.594;11.650;2023-01-10T21:23:14;97131.13;;;1.71
40624;BMP280;26325;48.594;11.650;2023-01-10T21:25:41;97130.50;;;1.69
40624;BMP280;26325;48.594;11.650;2023-01-10T21:28:07;97126.63;;;1.73
40624;BMP280;26325;48.594;11.650;2023-01-10T21:30:37;97120.00;;;1.86
40624;BMP280;26325;48.594;11.650;2023-01-10T21:33:03;97115.84;;;1.99
40624;BMP280;26325;48.594;11.650;2023-01-10T21:35:30;97119.81;;;2.02
40624;BMP280;26325;48.594;11.650;2023-01-10T21:37:55;97117.09;;;1.89
40624;BMP280;26325;48.594;11.650;2023-01-10T21:40:23;97128.44;;;2.01
40624;BMP280;26325;48.594;11.650;2023-01-10T21:42:49;97123.78;;;2.04
40624;BMP280;26325;48.594;11.650;2023-01-10T21:45:17;97124.72;;;2.17
40624;BMP280;26325;48.594;11.650;2023-01-10T21:47:43;97106.97;;;2.38
40624;BMP280;26325;48.594;11.650;2023-01-10T21:50:11;97112.66;;;2.54
40624;BMP280;26325;48.594;11.650;2023-01-10T21:52:38;97117.47;;;2.63
40624;BMP280;26325;48.594;11.650;2023-01-10T21:55:08;97109.44;;;2.80
40624;BMP280;26325;48.594;11.650;2023-01-10T21:57:34;97098.69;;;2.84
40624;BMP280;26325;48.594;11.650;2023-01-10T22:00:00;97099.91;;;2.88
40624;BMP280;26325;48.594;11.650;2023-01-10T22:02:28;97106.03;;;2.94
40624;BMP280;26325;48.594;11.650;2023-01-10T22:04:56;97101.72;;;2.94
40624;BMP280;26325;48.594;11.650;2023-01-10T22:07:27;97097.69;;;3.00
40624;BMP280;26325;48.594;11.650;2023-01-10T22:09:53;97086.97;;;3.10
40624;BMP280;26325;48.594;11.650;2023-01-10T22:12:23;97082.06;;;3.09
40624;BMP280;26325;48.594;11.650;2023-01-10T22:14:51;97092.84;;;3.11
40624;BMP280;26325;48.594;11.650;2023-01-10T22:17:17;97091.28;;;3.10
40624;BMP280;26325;48.594;11.650;2023-01-10T22:19:45;97086.72;;;3.05
40624;BMP280;26325;48.594;11.650;2023-01-10T22:22:11;97080.53;;;3.14
40624;BMP280;26325;48.594;11.650;2023-01-10T22:24:38;97080.06;;;3.25
40624;BMP280;26325;48.594;11.650;2023-01-10T22:27:05;97083.13;;;3.21
40624;BMP280;26325;48.594;11.650;2023-01-10T22:29:30;97078.22;;;3.19
40624;BMP280;26325;48.594;11.650;2023-01-10T22:31:56;97079.44;;;3.23
40624;BMP280;26325;48.594;11.650;2023-01-10T22:34:22;97080.22;;;3.23
40624;BMP280;26325;48.594;11.650;2023-01-10T22:36:47;97082.22;;;3.28
40624;BMP280;26325;48.594;11.650;2023-01-10T22:39:13;97069.78;;;3.45
40624;BMP280;26325;48.594;11.650;2023-01-10T22:41:39;97061.28;;;3.39
40624;BMP280;26325;48.594;11.650;2023-01-10T22:44:05;97065.63;;;3.38
40624;BMP280;26325;48.594;11.650;2023-01-10T22:46:31;97068.00;;;3.40
40624;BMP280;26325;48.594;11.650;2023-01-10T22:48:58;97061.72;;;3.42
40624;BMP280;26325;48.594;11.650;2023-01-10T22:51:25;97060.66;;;3.57
40624;BMP280;26325;48.594;11.650;2023-01-10T22:53:55;97052.06;;;3.64
40624;BMP280;26325;48.594;11.650;2023-01-10T22:56:22;97057.44;;;3.49
40624;BMP280;26325;48.594;11.650;2023-01-10T22:58:49;97059.66;;;3.52
40624;BMP280;26325;48.594;11.650;2023-01-10T23:01:17;97056.69;;;3.55
40624;BMP280;26325;48.594;11.650;2023-01-10T23:03:43;97054.53;;;3.52